createdAt,value
2018-05-21T00:00:34.332Z,0.00
2018-05-21T00:01:34.334Z,0.00
2018-05-21T00:02:34.337Z,0.00
2018-05-21T00:03:34.339Z,0.00
2018-05-21T00:04:34.341Z,0.00
2018-05-21T00:05:34.346Z,0.00
2018-05-21T00:06:34.346Z,0.00
2018-05-21T00:07:34.349Z,0.00
2018-05-21T00:08:34.352Z,0.00
2018-05-21T00:09:34.353Z,0.00
2018-05-21T00:10:34.355Z,0.00
2018-05-21T00:11:34.359Z,0.00
2018-05-21T00:12:34.361Z,0.00
2018-05-21T00:13:34.362Z,0.00
2018-05-21T00:14:34.366Z,0.00
2018-05-21T00:15:34.410Z,0.00
2018-05-21T00:16:34.371Z,0.00
2018-05-21T00:17:34.374Z,0.00
2018-05-21T00:18:34.373Z,0.00
2018-05-21T00:19:34.375Z,0.00
2018-05-21T00:20:34.381Z,0.00
2018-05-21T00:21:34.379Z,0.00
2018-05-21T00:22:34.382Z,0.00
2018-05-21T00:23:34.384Z,0.00
2018-05-21T00:24:34.387Z,0.00
2018-05-21T00:25:34.392Z,0.00
2018-05-21T00:26:34.391Z,0.00
2018-05-21T00:27:34.392Z,0.00
2018-05-21T00:28:34.395Z,0.00
2018-05-21T00:29:34.397Z,0.00
2018-05-21T00:30:34.399Z,0.00
2018-05-21T00:31:34.401Z,0.00
2018-05-21T00:32:34.404Z,0.00
2018-05-21T00:33:34.405Z,0.00
2018-05-21T00:34:34.408Z,0.00
2018-05-21T00:35:34.410Z,0.00
2018-05-21T00:36:34.412Z,0.00
2018-05-21T00:37:34.419Z,0.00
2018-05-21T00:38:34.417Z,0.00
2018-05-21T00:39:34.423Z,0.00
2018-05-21T00:40:34.420Z,0.00
2018-05-21T00:41:34.422Z,0.00
2018-05-21T00:42:34.427Z,0.00
2018-05-21T00:43:34.427Z,0.00
2018-05-21T00:44:34.430Z,0.00
2018-05-21T00:45:34.431Z,0.00
2018-05-21T00:46:34.433Z,0.00
2018-05-21T00:47:34.436Z,0.00
2018-05-21T00:48:34.442Z,0.00
2018-05-21T00:49:34.439Z,0.00
2018-05-21T00:50:34.441Z,0.00
2018-05-21T00:51:34.444Z,0.00
2018-05-21T00:52:34.446Z,0.00
2018-05-21T00:53:34.447Z,0.00
2018-05-21T00:54:34.449Z,0.00
2018-05-21T00:55:34.452Z,0.00
2018-05-21T00:56:34.453Z,0.00
2018-05-21T00:57:34.456Z,0.00
2018-05-21T00:58:34.458Z,0.00
2018-05-21T00:59:34.460Z,0.00
2018-05-21T01:00:34.462Z,0.00
2018-05-21T01:01:34.464Z,0.00
2018-05-21T01:02:34.466Z,0.00
2018-05-21T01:03:34.469Z,0.00
2018-05-21T01:04:34.471Z,0.00
2018-05-21T01:05:34.472Z,0.00
2018-05-21T01:06:34.475Z,0.00
2018-05-21T01:07:34.478Z,0.00
2018-05-21T01:08:34.479Z,0.00
2018-05-21T01:09:34.483Z,0.00
2018-05-21T01:10:34.485Z,0.00
2018-05-21T01:11:34.485Z,0.00
2018-05-21T01:12:34.490Z,0.00
2018-05-21T01:13:34.491Z,0.00
2018-05-21T01:14:34.491Z,0.00
2018-05-21T01:15:34.494Z,0.00
2018-05-21T01:16:34.495Z,0.00
2018-05-21T01:17:34.497Z,0.00
2018-05-21T01:18:34.498Z,0.00
2018-05-21T01:19:34.504Z,0.00
2018-05-21T01:20:34.505Z,0.00
2018-05-21T01:21:34.504Z,0.00
2018-05-21T01:22:34.506Z,0.00
2018-05-21T01:23:34.508Z,0.00
2018-05-21T01:24:34.510Z,0.00
2018-05-21T01:25:34.511Z,0.00
2018-05-21T01:26:34.513Z,0.00
2018-05-21T01:27:34.515Z,0.00
2018-05-21T01:28:34.518Z,0.00
2018-05-21T01:29:34.518Z,0.00
2018-05-21T01:30:34.522Z,0.00
2018-05-21T01:31:34.523Z,0.00
2018-05-21T01:32:34.525Z,0.00
2018-05-21T01:33:34.526Z,0.00
2018-05-21T01:34:34.529Z,0.00
2018-05-21T01:35:34.531Z,0.00
2018-05-21T01:36:34.533Z,0.00
2018-05-21T01:37:34.536Z,0.00
2018-05-21T01:38:34.536Z,0.00
2018-05-21T01:39:34.538Z,0.00
2018-05-21T01:40:34.540Z,0.00
2018-05-21T01:41:34.540Z,0.00
2018-05-21T01:42:34.547Z,0.00
2018-05-21T01:43:34.545Z,0.00
2018-05-21T01:44:34.548Z,0.00
2018-05-21T01:45:34.548Z,0.00
2018-05-21T01:46:34.550Z,0.00
2018-05-21T01:47:34.552Z,0.00
2018-05-21T01:48:34.554Z,0.00
2018-05-21T01:49:34.554Z,0.00
2018-05-21T01:50:34.557Z,0.00
2018-05-21T01:51:34.559Z,0.00
2018-05-21T01:52:34.560Z,0.00
2018-05-21T01:53:34.562Z,0.00
2018-05-21T01:54:34.564Z,0.00
2018-05-21T01:55:34.565Z,0.00
2018-05-21T01:56:34.568Z,0.00
2018-05-21T01:57:34.568Z,0.00
2018-05-21T01:58:34.571Z,0.00
2018-05-21T01:59:34.572Z,0.00
2018-05-21T02:00:34.575Z,0.00
2018-05-21T02:01:34.575Z,0.00
2018-05-21T02:02:34.578Z,0.00
2018-05-21T02:03:34.580Z,0.00
2018-05-21T02:04:34.595Z,0.00
2018-05-21T02:05:34.585Z,0.00
2018-05-21T02:06:34.582Z,0.00
2018-05-21T02:07:34.585Z,0.00
2018-05-21T02:08:34.613Z,0.00
2018-05-21T02:09:34.587Z,0.00
2018-05-21T02:10:34.590Z,0.00
2018-05-21T02:11:34.591Z,0.00
2018-05-21T02:12:34.593Z,0.00
2018-05-21T02:13:34.595Z,0.00
2018-05-21T02:14:34.596Z,0.00
2018-05-21T02:15:34.598Z,0.00
2018-05-21T02:16:34.599Z,0.00
2018-05-21T02:17:34.600Z,0.00
2018-05-21T02:18:34.602Z,0.00
2018-05-21T02:19:34.603Z,0.00
2018-05-21T02:20:34.610Z,0.00
2018-05-21T02:21:34.608Z,0.00
2018-05-21T02:22:34.609Z,0.00
2018-05-21T02:23:34.610Z,0.00
2018-05-21T02:24:34.612Z,0.00
2018-05-21T02:25:34.613Z,0.00
2018-05-21T02:26:34.613Z,0.00
2018-05-21T02:27:34.616Z,0.00
2018-05-21T02:28:34.617Z,0.00
2018-05-21T02:29:34.618Z,0.00
2018-05-21T02:30:34.624Z,0.00
2018-05-21T02:31:34.623Z,0.00
2018-05-21T02:32:34.622Z,0.00
2018-05-21T02:33:34.624Z,0.00
2018-05-21T02:34:34.626Z,0.00
2018-05-21T02:35:34.627Z,0.00
2018-05-21T02:36:34.634Z,0.00
2018-05-21T02:37:34.630Z,0.00
2018-05-21T02:38:34.632Z,0.00
2018-05-21T02:39:34.637Z,0.00
2018-05-21T02:40:34.635Z,0.00
2018-05-21T02:41:34.636Z,0.00
2018-05-21T02:42:34.636Z,0.00
2018-05-21T02:43:34.638Z,0.00
2018-05-21T02:44:34.640Z,0.00
2018-05-21T02:45:34.641Z,0.00
2018-05-21T02:46:34.644Z,0.00
2018-05-21T02:47:34.643Z,0.00
2018-05-21T02:48:34.646Z,0.00
2018-05-21T02:49:34.649Z,0.00
2018-05-21T02:50:34.647Z,0.00
2018-05-21T02:51:34.649Z,0.00
2018-05-21T02:52:34.650Z,4.00
2018-05-21T02:53:34.650Z,4.00
2018-05-21T02:54:34.654Z,4.00
2018-05-21T02:55:34.655Z,4.00
2018-05-21T02:56:34.655Z,4.00
2018-05-21T02:57:34.656Z,4.00
2018-05-21T02:58:34.659Z,4.00
2018-05-21T02:59:34.658Z,8.00
2018-05-21T03:00:34.660Z,4.00
2018-05-21T03:01:34.661Z,8.00
2018-05-21T03:02:34.662Z,8.00
2018-05-21T03:03:34.663Z,8.00
2018-05-21T03:04:34.664Z,12.00
2018-05-21T03:05:34.669Z,12.00
2018-05-21T03:06:34.666Z,12.00
2018-05-21T03:07:34.695Z,16.00
2018-05-21T03:08:34.669Z,20.00
2018-05-21T03:09:34.672Z,20.00
2018-05-21T03:10:34.670Z,20.00
2018-05-21T03:11:34.672Z,24.00
2018-05-21T03:12:34.673Z,28.00
2018-05-21T03:13:34.673Z,32.00
2018-05-21T03:14:34.678Z,36.00
2018-05-21T03:15:34.675Z,40.00
2018-05-21T03:16:34.678Z,44.00
2018-05-21T03:17:34.677Z,48.00
2018-05-21T03:18:34.680Z,56.00
2018-05-21T03:19:34.681Z,64.00
2018-05-21T03:20:34.682Z,72.00
2018-05-21T03:21:34.682Z,76.00
2018-05-21T03:22:34.683Z,84.00
2018-05-21T03:23:34.685Z,92.00
2018-05-21T03:24:34.686Z,104.00
2018-05-21T03:25:34.686Z,112.00
2018-05-21T03:26:34.687Z,120.00
2018-05-21T03:27:34.689Z,136.00
2018-05-21T03:28:34.688Z,148.00
2018-05-21T03:29:34.690Z,160.00
2018-05-21T03:30:34.691Z,172.00
2018-05-21T03:31:34.693Z,188.00
2018-05-21T03:32:34.694Z,204.00
2018-05-21T03:33:34.695Z,220.00
2018-05-21T03:34:34.696Z,236.00
2018-05-21T03:35:34.697Z,256.00
2018-05-21T03:36:34.699Z,272.00
2018-05-21T03:37:34.697Z,292.00
2018-05-21T03:38:34.700Z,312.00
2018-05-21T03:39:34.701Z,332.00
2018-05-21T03:40:34.702Z,352.00
2018-05-21T03:41:34.702Z,372.00
2018-05-21T03:42:34.704Z,396.00
2018-05-21T03:43:34.705Z,416.00
2018-05-21T03:44:34.706Z,440.00
2018-05-21T03:45:34.706Z,464.00
2018-05-21T03:46:34.707Z,488.00
2018-05-21T03:47:34.708Z,512.00
2018-05-21T03:48:34.710Z,536.00
2018-05-21T03:49:34.710Z,560.00
2018-05-21T03:50:34.711Z,588.00
2018-05-21T03:51:34.712Z,612.00
2018-05-21T03:52:34.714Z,640.00
2018-05-21T03:53:34.713Z,664.00
2018-05-21T03:54:34.715Z,692.00
2018-05-21T03:55:34.716Z,720.00
2018-05-21T03:56:34.717Z,748.00
2018-05-21T03:57:34.722Z,776.00
2018-05-21T03:58:34.719Z,804.00
2018-05-21T03:59:34.719Z,836.00
2018-05-21T04:00:34.721Z,860.00
2018-05-21T04:01:34.721Z,888.00
2018-05-21T04:02:34.722Z,920.00
2018-05-21T04:03:34.723Z,948.00
2018-05-21T04:04:34.757Z,980.00
2018-05-21T04:05:34.725Z,1012.00
2018-05-21T04:06:34.728Z,1044.00
2018-05-21T04:07:34.729Z,1072.00
2018-05-21T04:08:34.728Z,1104.00
2018-05-21T04:09:34.730Z,1132.00
2018-05-21T04:10:34.730Z,1164.00
2018-05-21T04:11:34.732Z,1192.00
2018-05-21T04:12:34.733Z,1224.00
2018-05-21T04:13:34.733Z,1256.00
2018-05-21T04:14:34.736Z,1284.00
2018-05-21T04:15:34.735Z,1316.00
2018-05-21T04:16:34.744Z,1352.00
2018-05-21T04:17:34.740Z,1380.00
2018-05-21T04:18:34.738Z,1412.00
2018-05-21T04:19:34.739Z,1440.00
2018-05-21T04:20:34.741Z,1472.00
2018-05-21T04:21:34.741Z,1504.00
2018-05-21T04:22:34.744Z,1536.00
2018-05-21T04:23:34.743Z,1568.00
2018-05-21T04:24:34.745Z,1596.00
2018-05-21T04:25:34.832Z,1628.00
2018-05-21T04:26:34.746Z,1660.00
2018-05-21T04:27:34.748Z,1688.00
2018-05-21T04:28:34.749Z,1716.00
2018-05-21T04:29:34.749Z,1748.00
2018-05-21T04:30:34.751Z,1776.00
2018-05-21T04:31:34.752Z,1800.00
2018-05-21T04:32:34.753Z,1832.00
2018-05-21T04:33:34.754Z,1864.00
2018-05-21T04:34:34.758Z,1888.00
2018-05-21T04:35:34.758Z,1920.00
2018-05-21T04:36:34.845Z,1948.00
2018-05-21T04:37:34.758Z,1980.00
2018-05-21T04:38:34.760Z,2012.00
2018-05-21T04:39:34.760Z,2040.00
2018-05-21T04:40:34.762Z,2072.00
2018-05-21T04:41:34.762Z,2104.00
2018-05-21T04:42:34.764Z,2128.00
2018-05-21T04:43:34.767Z,2156.00
2018-05-21T04:44:34.769Z,2180.00
2018-05-21T04:45:34.770Z,2204.00
2018-05-21T04:46:34.769Z,2232.00
2018-05-21T04:47:34.773Z,2260.00
2018-05-21T04:48:34.773Z,2288.00
2018-05-21T04:49:34.775Z,2316.00
2018-05-21T04:50:34.772Z,2344.00
2018-05-21T04:51:34.776Z,2372.00
2018-05-21T04:52:34.776Z,2400.00
2018-05-21T04:53:34.777Z,2428.00
2018-05-21T04:54:34.778Z,2456.00
2018-05-21T04:55:34.780Z,2484.00
2018-05-21T04:56:34.781Z,2512.00
2018-05-21T04:57:34.781Z,2544.00
2018-05-21T04:58:34.784Z,2572.00
2018-05-21T04:59:34.784Z,2600.00
2018-05-21T05:00:34.786Z,2628.00
2018-05-21T05:01:34.787Z,2660.00
2018-05-21T05:02:34.788Z,2688.00
2018-05-21T05:03:34.789Z,2720.00
2018-05-21T05:04:34.791Z,2752.00
2018-05-21T05:05:34.791Z,2780.00
2018-05-21T05:06:34.795Z,2812.00
2018-05-21T05:07:34.795Z,2844.00
2018-05-21T05:08:34.797Z,2880.00
2018-05-21T05:09:34.796Z,2928.00
2018-05-21T05:10:34.801Z,3000.00
2018-05-21T05:11:34.799Z,3044.00
2018-05-21T05:12:34.803Z,3064.00
2018-05-21T05:13:34.805Z,3084.00
2018-05-21T05:14:34.804Z,3108.00
2018-05-21T05:15:34.806Z,3132.00
2018-05-21T05:16:34.808Z,3160.00
2018-05-21T05:17:34.808Z,3184.00
2018-05-21T05:18:34.810Z,3212.00
2018-05-21T05:19:34.813Z,3240.00
2018-05-21T05:20:34.814Z,3256.00
2018-05-21T05:21:34.815Z,3280.00
2018-05-21T05:22:34.819Z,3304.00
2018-05-21T05:23:34.820Z,3324.00
2018-05-21T05:24:34.822Z,3344.00
2018-05-21T05:25:34.822Z,3364.00
2018-05-21T05:26:34.889Z,3392.00
2018-05-21T05:27:34.827Z,3420.00
2018-05-21T05:28:34.829Z,3440.00
2018-05-21T05:29:34.830Z,3468.00
2018-05-21T05:30:34.834Z,3496.00
2018-05-21T05:31:34.834Z,3524.00
2018-05-21T05:32:34.838Z,3544.00
2018-05-21T05:33:34.838Z,3572.00
2018-05-21T05:34:34.840Z,3592.00
2018-05-21T05:35:34.841Z,3616.00
2018-05-21T05:36:34.845Z,3644.00
2018-05-21T05:37:34.846Z,3668.00
2018-05-21T05:38:34.849Z,3696.00
2018-05-21T05:39:34.850Z,3716.00
2018-05-21T05:40:34.855Z,3740.00
2018-05-21T05:41:34.856Z,3756.00
2018-05-21T05:42:34.861Z,3776.00
2018-05-21T05:43:34.859Z,3804.00
2018-05-21T05:44:34.863Z,3828.00
2018-05-21T05:45:34.862Z,3860.00
2018-05-21T05:46:34.865Z,3888.00
2018-05-21T05:47:34.866Z,3908.00
2018-05-21T05:48:34.870Z,3928.00
2018-05-21T05:49:34.872Z,3952.00
2018-05-21T05:50:34.874Z,3968.00
2018-05-21T05:51:34.876Z,3988.00
2018-05-21T05:52:34.879Z,4004.00
2018-05-21T05:53:34.880Z,4024.00
2018-05-21T05:54:34.883Z,4044.00
2018-05-21T05:55:34.887Z,4068.00
2018-05-21T05:56:34.887Z,4088.00
2018-05-21T05:57:34.890Z,4100.00
2018-05-21T05:58:34.892Z,4120.00
2018-05-21T05:59:34.895Z,4140.00
2018-05-21T06:00:34.897Z,4144.00
2018-05-21T06:01:34.900Z,4164.00
2018-05-21T06:02:34.905Z,4176.00
2018-05-21T06:03:34.907Z,4192.00
2018-05-21T06:04:34.907Z,4204.00
2018-05-21T06:05:34.909Z,4224.00
2018-05-21T06:06:34.912Z,4252.00
2018-05-21T06:07:34.985Z,4268.00
2018-05-21T06:08:34.918Z,4288.00
2018-05-21T06:09:34.919Z,4300.00
2018-05-21T06:10:34.921Z,4316.00
2018-05-21T06:11:34.926Z,4336.00
2018-05-21T06:12:34.931Z,4344.00
2018-05-21T06:13:34.956Z,4364.00
2018-05-21T06:14:34.932Z,4376.00
2018-05-21T06:15:34.936Z,4392.00
2018-05-21T06:16:34.937Z,4412.00
2018-05-21T06:17:34.939Z,4444.00
2018-05-21T06:18:34.943Z,4464.00
2018-05-21T06:19:34.950Z,4484.00
2018-05-21T06:20:34.948Z,4508.00
2018-05-21T06:21:34.951Z,4536.00
2018-05-21T06:22:34.953Z,4556.00
2018-05-21T06:23:34.957Z,4576.00
2018-05-21T06:24:34.959Z,4588.00
2018-05-21T06:25:34.962Z,4612.00
2018-05-21T06:26:34.964Z,4628.00
2018-05-21T06:27:34.967Z,4656.00
2018-05-21T06:28:34.972Z,4676.00
2018-05-21T06:29:34.973Z,4692.00
2018-05-21T06:30:34.976Z,4708.00
2018-05-21T06:31:34.980Z,4732.00
2018-05-21T06:32:34.983Z,4744.00
2018-05-21T06:33:34.987Z,4756.00
2018-05-21T06:34:35.021Z,4772.00
2018-05-21T06:35:34.992Z,4780.00
2018-05-21T06:36:34.994Z,4796.00
2018-05-21T06:37:34.998Z,4816.00
2018-05-21T06:38:35.000Z,4844.00
2018-05-21T06:39:35.005Z,4860.00
2018-05-21T06:40:35.007Z,4880.00
2018-05-21T06:41:35.011Z,4908.00
2018-05-21T06:42:35.013Z,4944.00
2018-05-21T06:43:35.017Z,4964.00
2018-05-21T06:44:35.021Z,4988.00
2018-05-21T06:45:35.022Z,5056.00
2018-05-21T06:46:35.026Z,5104.00
2018-05-21T06:47:35.030Z,5148.00
2018-05-21T06:48:35.033Z,5192.00
2018-05-21T06:49:35.035Z,5236.00
2018-05-21T06:50:35.039Z,5268.00
2018-05-21T06:51:35.043Z,5284.00
2018-05-21T06:52:35.046Z,5284.00
2018-05-21T06:53:35.049Z,5316.00
2018-05-21T06:54:35.059Z,5344.00
2018-05-21T06:55:35.057Z,5336.00
2018-05-21T06:56:35.067Z,5340.00
2018-05-21T06:57:35.063Z,5352.00
2018-05-21T06:58:35.068Z,5352.00
2018-05-21T06:59:35.072Z,5364.00
2018-05-21T07:00:35.075Z,5420.00
2018-05-21T07:01:35.077Z,5424.00
2018-05-21T07:02:35.081Z,5432.00
2018-05-21T07:03:35.087Z,5468.00
2018-05-21T07:04:35.129Z,5480.00
2018-05-21T07:05:35.091Z,5496.00
2018-05-21T07:06:35.096Z,5520.00
2018-05-21T07:07:35.099Z,5548.00
2018-05-21T07:08:35.103Z,5560.00
2018-05-21T07:09:35.106Z,5580.00
2018-05-21T07:10:35.110Z,5584.00
2018-05-21T07:11:35.114Z,5632.00
2018-05-21T07:12:35.119Z,5672.00
2018-05-21T07:13:35.120Z,5704.00
2018-05-21T07:14:35.126Z,5744.00
2018-05-21T07:15:35.130Z,5772.00
2018-05-21T07:16:35.134Z,5800.00
2018-05-21T07:17:35.136Z,5832.00
2018-05-21T07:18:35.140Z,5856.00
2018-05-21T07:19:35.144Z,5872.00
2018-05-21T07:20:35.149Z,5896.00
2018-05-21T07:21:35.152Z,5932.00
2018-05-21T07:22:35.157Z,5960.00
2018-05-21T07:23:35.161Z,5980.00
2018-05-21T07:24:35.165Z,5996.00
2018-05-21T07:25:35.168Z,6032.00
2018-05-21T07:26:35.231Z,6056.00
2018-05-21T07:27:35.177Z,6076.00
2018-05-21T07:28:35.183Z,6116.00
2018-05-21T07:29:35.187Z,6152.00
2018-05-21T07:30:35.192Z,6176.00
2018-05-21T07:31:35.246Z,6244.00
2018-05-21T07:32:35.197Z,6288.00
2018-05-21T07:33:35.201Z,6344.00
2018-05-21T07:34:35.206Z,6548.00
2018-05-21T07:35:35.211Z,21536.00
2018-05-21T07:36:35.217Z,54176.00
2018-05-21T07:37:35.221Z,83616.00
2018-05-21T07:38:35.225Z,90144.00
2018-05-21T07:39:35.230Z,89248.00
2018-05-21T07:40:35.235Z,90880.00
2018-05-21T07:41:35.239Z,89760.00
2018-05-21T07:42:35.247Z,90400.00
2018-05-21T07:43:35.254Z,89248.00
2018-05-21T07:44:35.262Z,84896.00
2018-05-21T07:45:35.269Z,85056.00
2018-05-21T07:46:35.277Z,88384.00
2018-05-21T07:47:35.286Z,87904.00
2018-05-21T07:48:35.295Z,86368.00
2018-05-21T07:49:35.305Z,86304.00
2018-05-21T07:50:35.314Z,84960.00
2018-05-21T07:51:35.405Z,85408.00
2018-05-21T07:52:35.337Z,85344.00
2018-05-21T07:53:35.346Z,82784.00
2018-05-21T07:54:35.359Z,82912.00
2018-05-21T07:55:35.372Z,84192.00
2018-05-21T07:56:35.384Z,85600.00
2018-05-21T07:57:35.396Z,85536.00
2018-05-21T07:58:35.408Z,84992.00
2018-05-21T07:59:35.421Z,86464.00
2018-05-21T08:00:35.433Z,88704.00
2018-05-21T08:01:35.449Z,87136.00
2018-05-21T08:02:35.459Z,85792.00
2018-05-21T08:03:35.477Z,87296.00
2018-05-21T08:04:35.487Z,85952.00
2018-05-21T08:05:35.500Z,85184.00
2018-05-21T08:06:35.513Z,86208.00
2018-05-21T08:07:35.527Z,87296.00
2018-05-21T08:08:35.543Z,88096.00
2018-05-21T08:09:35.556Z,87520.00
2018-05-21T08:10:35.569Z,87104.00
2018-05-21T08:11:35.585Z,86752.00
2018-05-21T08:12:35.598Z,86976.00
2018-05-21T08:13:35.612Z,87328.00
2018-05-21T08:14:35.702Z,86336.00
2018-05-21T08:15:35.641Z,86912.00
2018-05-21T08:16:35.656Z,85600.00
2018-05-21T08:17:35.671Z,84480.00
2018-05-21T08:18:35.685Z,85632.00
2018-05-21T08:19:35.699Z,84960.00
2018-05-21T08:20:35.715Z,84384.00
2018-05-21T08:21:35.729Z,85152.00
2018-05-21T08:22:35.747Z,82400.00
2018-05-21T08:23:35.759Z,83904.00
2018-05-21T08:24:35.775Z,81920.00
2018-05-21T08:25:35.789Z,83360.00
2018-05-21T08:26:35.804Z,83040.00
2018-05-21T08:27:35.820Z,82560.00
2018-05-21T08:28:35.835Z,82240.00
2018-05-21T08:29:35.852Z,81920.00
2018-05-21T08:30:35.864Z,80992.00
2018-05-21T08:31:35.881Z,81152.00
2018-05-21T08:32:35.896Z,81760.00
2018-05-21T08:33:35.910Z,82176.00
2018-05-21T08:34:35.927Z,81152.00
2018-05-21T08:35:35.943Z,80448.00
2018-05-21T08:36:35.959Z,78272.00
2018-05-21T08:37:35.973Z,75712.00
2018-05-21T08:38:35.989Z,76128.00
2018-05-21T08:39:36.005Z,77120.00
2018-05-21T08:40:36.021Z,78624.00
2018-05-21T08:41:36.042Z,78624.00
2018-05-21T08:42:36.110Z,78112.00
2018-05-21T08:43:36.066Z,76864.00
2018-05-21T08:44:36.084Z,77344.00
2018-05-21T08:45:36.097Z,77952.00
2018-05-21T08:46:36.113Z,79648.00
2018-05-21T08:47:36.133Z,79296.00
2018-05-21T08:48:36.260Z,76320.00
2018-05-21T08:49:36.161Z,76704.00
2018-05-21T08:50:36.177Z,77696.00
2018-05-21T08:51:36.194Z,76832.00
2018-05-21T08:52:36.210Z,77632.00
2018-05-21T08:53:36.225Z,76032.00
2018-05-21T08:54:36.240Z,74656.00
2018-05-21T08:55:36.257Z,74752.00
2018-05-21T08:56:36.308Z,72896.00
2018-05-21T08:57:36.289Z,70688.00
2018-05-21T08:58:36.305Z,73632.00
2018-05-21T08:59:36.322Z,75264.00
2018-05-21T09:00:36.339Z,74304.00
2018-05-21T09:01:36.354Z,72544.00
2018-05-21T09:02:36.375Z,74880.00
2018-05-21T09:03:36.386Z,75072.00
2018-05-21T09:04:36.412Z,74112.00
2018-05-21T09:05:36.419Z,72960.00
2018-05-21T09:06:36.436Z,70016.00
2018-05-21T09:07:36.453Z,66752.00
2018-05-21T09:08:36.469Z,70976.00
2018-05-21T09:09:36.485Z,70432.00
2018-05-21T09:10:36.502Z,71680.00
2018-05-21T09:11:36.519Z,71328.00
2018-05-21T09:12:36.535Z,70240.00
2018-05-21T09:13:36.551Z,67968.00
2018-05-21T09:14:36.568Z,66304.00
2018-05-21T09:15:36.585Z,65504.00
2018-05-21T09:16:36.637Z,65952.00
2018-05-21T09:17:36.618Z,65952.00
2018-05-21T09:18:36.634Z,67584.00
2018-05-21T09:19:36.651Z,66176.00
2018-05-21T09:20:36.667Z,64256.00
2018-05-21T09:21:36.684Z,62720.00
2018-05-21T09:22:36.703Z,60320.00
2018-05-21T09:23:36.718Z,60288.00
2018-05-21T09:24:36.733Z,60352.00
2018-05-21T09:25:36.751Z,65376.00
2018-05-21T09:26:36.766Z,73536.00
2018-05-21T09:27:36.783Z,60672.00
2018-05-21T09:28:36.799Z,34880.00
2018-05-21T09:29:36.815Z,24768.00
2018-05-21T09:30:36.831Z,24416.00
2018-05-21T09:31:36.848Z,24448.00
2018-05-21T09:32:36.865Z,24160.00
2018-05-21T09:33:36.880Z,23904.00
2018-05-21T09:34:36.896Z,23648.00
2018-05-21T09:35:36.916Z,23872.00
2018-05-21T09:36:36.929Z,23936.00
2018-05-21T09:37:36.945Z,24640.00
2018-05-21T09:38:36.961Z,25728.00
2018-05-21T09:39:36.977Z,27392.00
2018-05-21T09:40:36.994Z,28416.00
2018-05-21T09:41:37.009Z,29184.00
2018-05-21T09:42:37.025Z,33408.00
2018-05-21T09:43:37.042Z,36352.00
2018-05-21T09:44:37.059Z,35104.00
2018-05-21T09:45:37.073Z,33216.00
2018-05-21T09:46:37.090Z,30528.00
2018-05-21T09:47:37.106Z,28832.00
2018-05-21T09:48:37.126Z,26944.00
2018-05-21T09:49:37.140Z,25632.00
2018-05-21T09:50:37.153Z,24704.00
2018-05-21T09:51:37.169Z,24192.00
2018-05-21T09:52:37.185Z,23424.00
2018-05-21T09:53:37.201Z,23104.00
2018-05-21T09:54:37.216Z,22400.00
2018-05-21T09:55:37.232Z,21888.00
2018-05-21T09:56:37.249Z,21664.00
2018-05-21T09:57:37.263Z,21216.00
2018-05-21T09:58:37.278Z,21184.00
2018-05-21T09:59:37.300Z,20736.00
2018-05-21T10:00:37.311Z,20288.00
2018-05-21T10:01:37.326Z,20128.00
2018-05-21T10:02:37.346Z,20160.00
2018-05-21T10:03:37.359Z,20192.00
2018-05-21T10:04:37.380Z,19872.00
2018-05-21T10:05:37.387Z,19744.00
2018-05-21T10:06:37.405Z,19616.00
2018-05-21T10:07:37.425Z,19072.00
2018-05-21T10:08:37.437Z,18752.00
2018-05-21T10:09:37.453Z,18624.00
2018-05-21T10:10:37.466Z,18624.00
2018-05-21T10:11:37.484Z,18688.00
2018-05-21T10:12:37.499Z,18176.00
2018-05-21T10:13:37.514Z,18240.00
2018-05-21T10:14:37.529Z,18048.00
2018-05-21T10:15:37.545Z,17344.00
2018-05-21T10:16:37.560Z,17408.00
2018-05-21T10:17:37.575Z,17536.00
2018-05-21T10:18:37.590Z,17280.00
2018-05-21T10:19:37.606Z,16960.00
2018-05-21T10:20:37.622Z,16832.00
2018-05-21T10:21:37.636Z,16864.00
2018-05-21T10:22:37.652Z,16768.00
2018-05-21T10:23:37.668Z,16448.00
2018-05-21T10:24:37.683Z,16832.00
2018-05-21T10:25:37.698Z,16480.00
2018-05-21T10:26:37.713Z,16672.00
2018-05-21T10:27:37.728Z,16960.00
2018-05-21T10:28:37.744Z,17280.00
2018-05-21T10:29:37.757Z,17504.00
2018-05-21T10:30:37.774Z,17952.00
2018-05-21T10:31:37.788Z,18400.00
2018-05-21T10:32:37.803Z,19104.00
2018-05-21T10:33:37.818Z,20064.00
2018-05-21T10:34:37.833Z,21472.00
2018-05-21T10:35:37.846Z,24288.00
2018-05-21T10:36:37.862Z,28960.00
2018-05-21T10:37:37.879Z,30752.00
2018-05-21T10:38:37.892Z,31360.00
2018-05-21T10:39:37.906Z,34048.00
2018-05-21T10:40:37.919Z,37120.00
2018-05-21T10:41:37.933Z,40672.00
2018-05-21T10:42:37.947Z,42560.00
2018-05-21T10:43:37.961Z,41056.00
2018-05-21T10:44:37.975Z,35328.00
2018-05-21T10:45:37.988Z,30560.00
2018-05-21T10:46:38.004Z,28000.00
2018-05-21T10:47:38.017Z,25152.00
2018-05-21T10:48:38.031Z,22752.00
2018-05-21T10:49:38.045Z,21152.00
2018-05-21T10:50:38.058Z,19744.00
2018-05-21T10:51:38.072Z,18528.00
2018-05-21T10:52:38.086Z,17152.00
2018-05-21T10:53:38.099Z,15572.00
2018-05-21T10:54:38.113Z,14500.00
2018-05-21T10:55:38.127Z,13980.00
2018-05-21T10:56:38.145Z,13556.00
2018-05-21T10:57:38.220Z,12904.00
2018-05-21T10:58:38.170Z,12452.00
2018-05-21T10:59:38.181Z,12264.00
2018-05-21T11:00:38.196Z,12068.00
2018-05-21T11:01:38.208Z,11860.00
2018-05-21T11:02:38.222Z,11712.00
2018-05-21T11:03:38.233Z,11568.00
2018-05-21T11:04:38.285Z,11304.00
2018-05-21T11:05:38.259Z,11116.00
2018-05-21T11:06:38.274Z,10896.00
2018-05-21T11:07:38.287Z,10756.00
2018-05-21T11:08:38.306Z,10732.00
2018-05-21T11:09:38.313Z,10612.00
2018-05-21T11:10:38.326Z,10468.00
2018-05-21T11:11:38.339Z,10348.00
2018-05-21T11:12:38.353Z,9948.00
2018-05-21T11:13:38.364Z,9640.00
2018-05-21T11:14:38.377Z,10064.00
2018-05-21T11:15:38.390Z,10148.00
2018-05-21T11:16:38.403Z,9660.00
2018-05-21T11:17:38.414Z,8400.00
2018-05-21T11:18:38.426Z,7732.00
2018-05-21T11:19:38.439Z,8480.00
2018-05-21T11:20:38.450Z,7564.00
2018-05-21T11:21:38.462Z,7508.00
2018-05-21T11:22:38.476Z,7616.00
2018-05-21T11:23:38.487Z,7472.00
2018-05-21T11:24:38.565Z,7344.00
2018-05-21T11:25:38.513Z,7292.00
2018-05-21T11:26:38.521Z,7288.00
2018-05-21T11:27:38.532Z,7172.00
2018-05-21T11:28:38.543Z,7124.00
2018-05-21T11:29:38.553Z,7148.00
2018-05-21T11:30:38.564Z,7104.00
2018-05-21T11:31:38.575Z,7080.00
2018-05-21T11:32:38.586Z,6984.00
2018-05-21T11:33:38.594Z,6972.00
2018-05-21T11:34:38.605Z,7020.00
2018-05-21T11:35:38.617Z,7092.00
2018-05-21T11:36:38.627Z,6936.00
2018-05-21T11:37:38.637Z,6968.00
2018-05-21T11:38:38.646Z,6940.00
2018-05-21T11:39:38.657Z,6872.00
2018-05-21T11:40:38.667Z,6852.00
2018-05-21T11:41:38.677Z,6812.00
2018-05-21T11:42:38.686Z,6752.00
2018-05-21T11:43:38.696Z,6716.00
2018-05-21T11:44:38.705Z,6668.00
2018-05-21T11:45:38.715Z,6656.00
2018-05-21T11:46:38.724Z,6628.00
2018-05-21T11:47:38.733Z,6572.00
2018-05-21T11:48:38.745Z,6564.00
2018-05-21T11:49:38.752Z,6548.00
2018-05-21T11:50:38.826Z,6460.00
2018-05-21T11:51:38.775Z,6452.00
2018-05-21T11:52:38.788Z,6444.00
2018-05-21T11:53:38.790Z,6400.00
2018-05-21T11:54:38.799Z,6324.00
2018-05-21T11:55:38.809Z,6216.00
2018-05-21T11:56:38.818Z,6252.00
2018-05-21T11:57:38.827Z,6184.00
2018-05-21T11:58:38.838Z,6288.00
2018-05-21T11:59:38.847Z,6124.00
2018-05-21T12:00:38.855Z,6120.00
2018-05-21T12:01:38.864Z,6152.00
2018-05-21T12:02:38.965Z,6192.00
2018-05-21T12:03:38.881Z,6064.00
2018-05-21T12:04:38.891Z,6028.00
2018-05-21T12:05:38.898Z,6020.00
2018-05-21T12:06:38.908Z,6032.00
2018-05-21T12:07:39.005Z,5992.00
2018-05-21T12:08:38.925Z,6040.00
2018-05-21T12:09:38.933Z,5940.00
2018-05-21T12:10:38.943Z,5916.00
2018-05-21T12:11:38.951Z,5876.00
2018-05-21T12:12:38.961Z,5776.00
2018-05-21T12:13:39.039Z,5700.00
2018-05-21T12:14:38.978Z,5740.00
2018-05-21T12:15:38.988Z,5756.00
2018-05-21T12:16:38.995Z,5760.00
2018-05-21T12:17:39.003Z,5796.00
2018-05-21T12:18:39.014Z,5740.00